Time;durP1;ratioP1;P1;durP2;ratioP2;P2;SDS_P1;SDS_P2;PMS_P1;PMS_P2;Temp;Humidity;BMP_temperature;BMP_pressure;BME280_temperature;BME280_humidity;BME280_pressure;Samples;Min_cycle;Max_cycle;Signal;HPM_P1;HPM_P2
2023/08/25 00:00:20;;;;;;;10.02;7.78;;;;;;;30.69;63.98;100755.09;4919761;28;69881;-36
2023/08/25 00:02:50;;;;;;;9.25;7.07;;;;;;;30.70;65.80;100745.94;4917235;28;65645;-36
2023/08/25 00:05:20;;;;;;;8.45;7.20;;;;;;;30.73;65.52;100745.50;4919702;28;69736;-36
2023/08/25 00:07:50;;;;;;;8.23;6.72;;;;;;;30.84;65.93;100762.06;4918794;28;65332;-38
2023/08/25 00:10:22;;;;;;;7.13;6.38;;;;;;;30.88;66.79;100757.88;4917033;28;70425;-37
2023/08/25 00:12:52;;;;;;;;;;;;;;;30.68;69.16;100764.28;4914417;28;66284;-36
2023/08/25 00:15:22;;;;;;;8.80;5.93;;;;;;;30.89;68.45;100759.53;4906532;28;69718;-36
2023/08/25 00:17:55;;;;;;;14.07;7.38;;;;;;;31.00;67.89;100766.91;4913478;28;65859;-36
2023/08/25 00:20:26;;;;;;;8.30;7.55;;;;;;;30.92;70.90;100742.81;4913679;28;69524;-36
2023/08/25 00:22:57;;;;;;;14.83;7.90;;;;;;;31.02;71.53;100761.28;4915860;28;65461;-35
2023/08/25 00:25:27;;;;;;;8.68;7.82;;;;;;;31.08;71.38;100766.63;4924117;28;70660;-35
2023/08/25 00:27:57;;;;;;;9.52;6.72;;;;;;;30.92;72.32;100742.81;4914956;28;66337;-34
2023/08/25 00:30:27;;;;;;;9.45;8.27;;;;;;;30.99;71.63;100759.84;4915007;28;70159;-34
2023/08/25 00:33:00;;;;;;;10.95;7.85;;;;;;;31.11;72.07;100768.06;4912097;28;66426;-35
2023/08/25 00:35:30;;;;;;;13.73;7.82;;;;;;;31.19;72.52;100785.91;4906518;28;70546;-34
2023/08/25 00:38:01;;;;;;;22.27;8.18;;;;;;;31.20;72.49;100782.13;4914546;28;66147;-35
2023/08/25 00:40:37;;;;;;;9.15;6.68;;;;;;;30.77;72.78;100709.84;4907062;28;69180;-36
2023/08/25 00:43:08;;;;;;;11.82;6.82;;;;;;;31.27;72.62;100785.63;4897157;28;66351;-36
2023/08/25 00:45:41;;;;;;;6.97;5.63;;;;;;;31.29;68.92;100786.22;4915193;28;69532;-35
2023/08/25 00:48:12;;;;;;;5.45;4.95;;;;;;;31.23;68.10;100778.97;4906137;28;66698;-35
2023/08/25 00:50:42;;;;;;;9.55;4.35;;;;;;;31.28;67.72;100795.38;4918584;28;70588;-35
2023/08/25 00:53:15;;;;;;;4.53;4.13;;;;;;;31.33;67.64;100793.66;4904480;28;65979;-34
2023/08/25 00:55:45;;;;;;;3.88;3.58;;;;;;;31.33;67.43;100790.94;4909999;28;70435;-35
2023/08/25 00:58:17;;;;;;;3.38;3.05;;;;;;;31.38;66.88;100790.31;4891280;28;65682;-35
2023/08/25 01:00:48;;;;;;;3.53;2.80;;;;;;;31.38;66.91;100801.16;4908410;28;69926;-34
2023/08/25 01:03:19;;;;;;;2.30;2.08;;;;;;;31.29;66.55;100776.22;4909004;28;65996;-35
2023/08/25 01:05:49;;;;;;;3.38;2.20;;;;;;;31.45;66.25;100790.22;4912317;28;70641;-36
2023/08/25 01:08:20;;;;;;;1.75;1.65;;;;;;;31.45;65.66;100796.47;4916602;28;66490;-36
2023/08/25 01:10:56;;;;;;;2.05;1.67;;;;;;;31.46;65.41;100800.84;4888920;28;69950;-35
2023/08/25 01:13:44;;;;;;;1.90;1.48;;;;;;;31.42;65.57;100798.81;4900175;28;65655;-35
2023/08/25 01:16:20;;;;;;;2.33;1.90;;;;;;;31.52;65.06;100799.94;4912035;28;69686;-35
2023/08/25 01:18:50;;;;;;;2.88;1.77;;;;;;;31.52;64.96;100807.25;4910862;28;66335;-35
2023/08/25 01:21:21;;;;;;;2.38;1.50;;;;;;;31.53;64.94;100793.47;4916642;28;69162;-36
2023/08/25 01:24:03;;;;;;;1.57;1.47;;;;;;;31.55;64.63;100802.19;4904064;28;66304;-36
2023/08/25 01:26:33;;;;;;;1.60;1.20;;;;;;;31.50;64.72;100788.50;4902606;28;69897;-37
2023/08/25 01:29:03;;;;;;;2.20;1.70;;;;;;;31.59;64.49;100814.25;4899134;28;66132;-37
2023/08/25 01:31:35;;;;;;;1.67;1.20;;;;;;;31.60;64.42;100810.50;4889122;28;70334;-36
2023/08/25 01:34:07;;;;;;;;;;;;;;;31.36;66.24;100814.09;4910465;28;66684;-35
2023/08/25 01:37:00;;;;;;;4.13;0.98;;;;;;;30.84;64.43;100680.81;4892951;28;70108;-35
2023/08/25 01:39:34;;;;;;;1.52;1.00;;;;;;;31.66;64.21;100814.16;4911875;28;66371;-35
2023/08/25 01:42:07;;;;;;;1.13;0.80;;;;;;;31.69;63.95;100812.88;4908526;28;70502;-37
2023/08/25 01:44:41;;;;;;;1.17;0.73;;;;;;;31.16;64.10;100728.41;4916831;28;66118;-36
2023/08/25 01:47:16;;;;;;;0.95;0.75;;;;;;;31.73;64.11;100817.66;4918722;28;70808;-36
2023/08/25 01:49:46;;;;;;;3.05;0.93;;;;;;;31.65;63.66;100803.53;4912935;28;66586;-35
2023/08/25 01:52:21;;;;;;;1.08;0.93;;;;;;;31.72;63.72;100817.84;4912185;28;70416;-35
2023/08/25 01:54:52;;;;;;;0.90;0.75;;;;;;;31.79;63.68;100834.88;4914198;28;66830;-35
2023/08/25 01:57:22;;;;;;;1.20;0.82;;;;;;;31.75;63.56;100820.13;4909106;28;69568;-36
2023/08/25 01:59:52;;;;;;;1.67;1.10;;;;;;;31.81;63.51;100817.31;4909203;28;66994;-35
2023/08/25 02:02:22;;;;;;;2.38;1.33;;;;;;;31.85;63.63;100817.69;4918271;28;69429;-35
2023/08/25 02:04:52;;;;;;;1.63;1.17;;;;;;;31.87;63.39;100823.69;4914245;28;66274;-35
2023/08/25 02:07:23;;;;;;;1.10;0.90;;;;;;;31.89;63.63;100818.06;4916796;28;69426;-35
2023/08/25 02:09:54;;;;;;;1.42;1.00;;;;;;;31.91;63.30;100822.22;4922090;28;66309;-36
2023/08/25 02:12:24;;;;;;;1.33;1.17;;;;;;;31.87;63.24;100820.97;4918641;28;69837;-36
2023/08/25 02:14:54;;;;;;;1.10;0.80;;;;;;;31.93;63.38;100820.13;4914209;28;66081;-36
2023/08/25 02:17:25;;;;;;;1.30;0.90;;;;;;;31.96;63.21;100816.94;4910874;28;69164;-36
2023/08/25 02:19:55;;;;;;;0.98;0.77;;;;;;;31.97;63.10;100824.03;4896896;28;65774;-35
2023/08/25 02:22:25;;;;;;;1.27;0.75;;;;;;;31.99;63.33;100824.63;4904880;28;70248;-36
2023/08/25 02:24:56;;;;;;;0.80;0.60;;;;;;;32.00;62.84;100818.13;4897267;28;67117;-35
2023/08/25 02:27:26;;;;;;;1.10;0.60;;;;;;;32.02;62.72;100817.91;4910576;28;70147;-36
2023/08/25 02:29:56;;;;;;;1.00;0.60;;;;;;;32.03;62.85;100820.38;4917158;28;66437;-36
2023/08/25 02:32:26;;;;;;;1.20;0.75;;;;;;;32.08;62.49;100822.41;4887540;28;69546;-35
2023/08/25 02:34:56;;;;;;;2.88;0.63;;;;;;;32.08;62.61;100802.59;4911290;28;66699;-35
2023/08/25 02:37:26;;;;;;;1.30;0.95;;;;;;;32.10;62.49;100808.63;4911723;28;70124;-35
2023/08/25 02:39:56;;;;;;;1.23;0.90;;;;;;;32.15;62.46;100808.75;4904969;28;66333;-36
2023/08/25 02:42:27;;;;;;;1.88;1.00;;;;;;;32.15;62.40;100811.47;4897579;28;69703;-35
2023/08/25 02:45:00;;;;;;;3.10;0.68;;;;;;;32.14;62.36;100793.53;4897900;28;66523;-36
2023/08/25 02:47:30;;;;;;;0.85;0.70;;;;;;;32.21;62.29;100802.41;4920277;28;69323;-36
2023/08/25 02:50:02;;;;;;;0.82;0.55;;;;;;;32.23;62.09;100805.72;4892834;28;65803;-37
2023/08/25 02:52:32;;;;;;;;;;;;;;;31.96;63.05;100808.81;4900519;28;70281;-35
2023/08/25 02:55:02;;;;;;;1.83;0.95;;;;;;;32.21;62.28;100805.13;4890697;29;65248;-36
2023/08/25 02:57:32;;;;;;;0.70;0.70;;;;;;;32.19;62.04;100796.38;4921536;28;70499;-39
2023/08/25 03:00:04;;;;;;;1.25;0.80;;;;;;;32.28;61.73;100811.28;4905480;28;66488;-36
2023/08/25 03:02:35;;;;;;;1.02;0.50;;;;;;;32.28;61.53;100795.81;4904294;28;69662;-35
2023/08/25 03:05:05;;;;;;;0.85;0.52;;;;;;;32.32;61.69;100801.63;4911181;28;65848;-35
2023/08/25 03:07:35;;;;;;;1.33;0.65;;;;;;;32.33;61.62;100814.13;4904327;28;68244;-35
2023/08/25 03:10:09;;;;;;;0.68;0.50;;;;;;;32.35;61.55;100803.88;4906725;28;66257;-35
2023/08/25 03:12:40;;;;;;;0.90;0.70;;;;;;;32.35;61.36;100812.00;4908350;28;70278;-36
2023/08/25 03:15:10;;;;;;;1.88;0.88;;;;;;;32.39;61.44;100807.75;4901534;28;66581;-36
2023/08/25 03:17:41;;;;;;;0.70;0.47;;;;;;;32.36;61.43;100800.09;4903321;28;70492;-35
2023/08/25 03:20:11;;;;;;;1.38;0.60;;;;;;;32.43;61.48;100799.97;4897280;28;66233;-37
2023/08/25 03:22:41;;;;;;;1.05;0.77;;;;;;;32.45;61.17;100790.53;4895320;28;70043;-34
2023/08/25 03:25:12;;;;;;;0.85;0.70;;;;;;;32.47;61.11;100783.03;4889451;28;66036;-36
2023/08/25 03:27:43;;;;;;;2.60;0.60;;;;;;;32.49;60.98;100786.34;4894030;28;70307;-37
2023/08/25 03:30:13;;;;;;;0.82;0.60;;;;;;;32.51;61.00;100783.38;4923092;28;65371;-35
2023/08/25 03:32:44;;;;;;;0.98;0.63;;;;;;;32.51;60.75;100768.97;4913015;28;69157;-36
2023/08/25 03:35:14;;;;;;;0.77;0.60;;;;;;;32.55;60.82;100764.75;4899575;28;67811;-37
2023/08/25 03:37:45;;;;;;;1.45;0.70;;;;;;;32.56;60.72;100761.78;4912559;28;70503;-35
2023/08/25 03:40:15;;;;;;;0.47;0.47;;;;;;;32.58;60.68;100764.28;4903475;28;66076;-35
2023/08/25 03:42:45;;;;;;;0.93;0.40;;;;;;;32.59;60.66;100769.47;4915788;28;70201;-34
2023/08/25 03:45:16;;;;;;;0.30;0.30;;;;;;;32.60;60.56;100764.88;4902473;28;66755;-35
2023/08/25 03:47:47;;;;;;;0.57;0.43;;;;;;;32.63;60.64;100753.53;4918513;28;70289;-36
2023/08/25 03:50:17;;;;;;;2.45;0.40;;;;;;;32.58;60.79;100753.41;4918164;28;65421;-36
2023/08/25 03:52:49;;;;;;;0.60;0.40;;;;;;;32.65;60.37;100751.41;4904745;28;70198;-36
2023/08/25 03:55:21;;;;;;;1.50;0.47;;;;;;;32.65;60.96;100763.09;4885302;29;65304;-36
2023/08/25 03:57:52;;;;;;;1.77;0.57;;;;;;;32.64;60.70;100747.03;4904673;28;69216;-35
2023/08/25 04:00:23;;;;;;;1.20;0.40;;;;;;;32.69;60.28;100733.56;4905305;28;65993;-35
2023/08/25 04:02:54;;;;;;;0.67;0.50;;;;;;;32.68;60.42;100735.47;4886594;28;68198;-35
2023/08/25 04:05:24;;;;;;;1.67;0.50;;;;;;;32.68;60.78;100723.75;4910251;28;66269;-35
2023/08/25 04:07:55;;;;;;;0.60;0.50;;;;;;;32.76;60.18;100728.00;4891303;28;69581;-36
2023/08/25 04:10:26;;;;;;;0.87;0.50;;;;;;;32.74;60.40;100709.25;4914871;28;66048;-35
2023/08/25 04:12:56;;;;;;;0.73;0.47;;;;;;;32.77;60.25;100716.94;4913947;28;69511;-35
2023/08/25 04:15:26;;;;;;;0.75;0.45;;;;;;;32.80;60.00;100705.59;4904931;28;66220;-36
2023/08/25 04:17:59;;;;;;;1.27;0.40;;;;;;;32.81;60.11;100712.66;4930553;28;43022;-41
2023/08/25 04:20:29;;;;;;;0.93;0.40;;;;;;;32.86;59.97;100709.25;4905048;28;65903;-36
2023/08/25 04:23:03;;;;;;;0.80;0.40;;;;;;;32.89;59.67;100706.03;4905499;28;69673;-35
2023/08/25 04:25:33;;;;;;;0.50;0.30;;;;;;;32.87;59.66;100694.59;4893452;28;66500;-35
2023/08/25 04:28:04;;;;;;;0.60;0.40;;;;;;;32.90;59.80;100694.94;4914764;28;70117;-35
2023/08/25 04:30:34;;;;;;;0.50;0.32;;;;;;;32.79;59.80;100665.91;4919891;28;66203;-35
2023/08/25 04:33:13;;;;;;;0.98;0.57;;;;;;;32.92;59.87;100686.53;4901404;28;69355;-35
2023/08/25 04:35:44;;;;;;;0.82;0.70;;;;;;;32.94;59.88;100690.69;4928096;28;66079;-36
2023/08/25 04:38:14;;;;;;;1.02;0.30;;;;;;;32.89;59.75;100676.97;4905907;28;70073;-35
2023/08/25 04:40:45;;;;;;;1.05;0.50;;;;;;;32.96;59.92;100686.88;4911793;28;65894;-36
2023/08/25 04:43:15;;;;;;;0.98;0.52;;;;;;;33.00;59.39;100677.25;4915323;28;69930;-35
2023/08/25 04:45:48;;;;;;;1.48;0.52;;;;;;;32.98;59.45;100674.72;4919042;28;65661;-35
2023/08/25 04:48:18;;;;;;;0.95;0.60;;;;;;;32.99;59.19;100661.94;4904172;28;69507;-36
2023/08/25 04:50:49;;;;;;;0.82;0.40;;;;;;;33.01;59.54;100657.13;4908960;28;65790;-35
2023/08/25 04:53:19;;;;;;;0.70;0.40;;;;;;;33.06;59.30;100654.53;4924317;28;69992;-37
2023/08/25 04:55:50;;;;;;;0.75;0.30;;;;;;;33.09;59.02;100657.59;4894621;28;64251;-36
2023/08/25 04:58:21;;;;;;;1.35;0.55;;;;;;;33.00;59.30;100641.91;4905496;28;70201;-36
2023/08/25 05:00:53;;;;;;;1.00;0.30;;;;;;;32.74;59.18;100597.91;4904678;28;66136;-36
2023/08/25 05:03:24;;;;;;;0.52;0.30;;;;;;;33.15;59.08;100659.38;4903940;28;70586;-36
2023/08/25 05:05:55;;;;;;;0.63;0.40;;;;;;;33.15;59.11;100662.06;4891377;28;66562;-37
2023/08/25 05:08:28;;;;;;;0.30;0.30;;;;;;;33.17;59.03;100650.13;4912891;28;70180;-36
2023/08/25 05:10:58;;;;;;;1.25;0.50;;;;;;;33.19;59.32;100642.56;4905275;28;65818;-35
2023/08/25 05:13:29;;;;;;;0.90;0.50;;;;;;;33.19;59.20;100642.56;4913815;28;69252;-37
2023/08/25 05:15:59;;;;;;;0.40;0.40;;;;;;;33.19;59.08;100643.38;4910814;28;66182;-35
2023/08/25 05:18:55;;;;;;;0.45;0.40;;;;;;;33.18;59.25;100635.47;4910094;28;69715;-36
2023/08/25 05:21:26;;;;;;;0.88;0.47;;;;;;;33.22;59.08;100637.47;4914273;28;66484;-37
2023/08/25 05:24:17;;;;;;;0.80;0.40;;;;;;;33.18;59.04;100630.03;4895116;28;69627;-35
2023/08/25 05:26:47;;;;;;;0.98;0.57;;;;;;;33.20;58.47;100606.97;4909916;28;64576;-36
2023/08/25 05:29:22;;;;;;;2.95;0.40;;;;;;;33.29;58.55;100610.97;4918814;28;69736;-37
2023/08/25 05:31:54;;;;;;;0.45;0.30;;;;;;;33.23;58.62;100603.75;4911979;28;65520;-35
2023/08/25 05:34:59;;;;;;;0.68;0.50;;;;;;;33.29;58.50;100608.25;4868945;29;69876;-35
2023/08/25 05:37:31;;;;;;;0.67;0.50;;;;;;;33.30;58.59;100601.75;4894824;28;67393;-36
2023/08/25 05:40:01;;;;;;;1.55;0.50;;;;;;;33.10;58.18;100563.31;4886095;28;69820;-35
2023/08/25 05:42:35;;;;;;;1.75;0.50;;;;;;;33.39;58.18;100604.88;4893161;28;65910;-34
2023/08/25 05:45:07;;;;;;;0.60;0.50;;;;;;;33.41;58.40;100586.44;4898820;28;70694;-36
2023/08/25 05:47:38;;;;;;;0.98;0.47;;;;;;;33.38;58.42;100573.34;4889907;28;66027;-35
2023/08/25 05:50:08;;;;;;;1.15;0.70;;;;;;;33.46;58.67;100577.53;4908926;28;69034;-36
2023/08/25 05:52:41;;;;;;;1.30;0.63;;;;;;;33.44;58.35;100564.19;4915550;28;66325;-38
2023/08/25 05:55:13;;;;;;;0.93;0.47;;;;;;;33.48;58.33;100559.09;4911161;28;70472;-36
2023/08/25 05:57:43;;;;;;;1.45;0.60;;;;;;;33.45;58.17;100551.41;4918788;28;65951;-37
2023/08/25 06:00:14;;;;;;;1.45;0.70;;;;;;;33.41;57.95;100547.56;4914234;28;69595;-36
2023/08/25 06:02:44;;;;;;;0.90;0.65;;;;;;;33.52;58.39;100560.25;4916878;28;65824;-36
2023/08/25 06:05:14;;;;;;;1.17;0.85;;;;;;;33.53;58.06;100562.75;4918367;28;69537;-37
2023/08/25 06:07:44;;;;;;;1.15;0.70;;;;;;;33.52;58.38;100554.81;4895970;28;65918;-39
2023/08/25 06:10:15;;;;;;;0.80;0.60;;;;;;;33.54;57.98;100547.25;4912744;28;70439;-38
2023/08/25 06:12:45;;;;;;;0.98;0.73;;;;;;;33.54;57.76;100547.25;4917288;28;64645;-36
2023/08/25 06:15:15;;;;;;;0.70;0.40;;;;;;;33.59;57.75;100544.63;4914092;28;69749;-35
2023/08/25 06:17:45;;;;;;;1.02;0.57;;;;;;;33.61;57.62;100534.31;4921348;28;65446;-41
2023/08/25 06:20:15;;;;;;;1.05;0.57;;;;;;;33.63;57.75;100547.66;4912463;28;70003;-36
2023/08/25 06:22:46;;;;;;;1.75;0.60;;;;;;;33.62;57.81;100533.25;4928752;28;66227;-37
2023/08/25 06:25:16;;;;;;;2.13;0.55;;;;;;;33.67;58.03;100530.59;4918235;28;70213;-35
2023/08/25 06:27:46;;;;;;;0.80;0.57;;;;;;;33.70;57.99;100524.66;4914373;28;65355;-35
2023/08/25 06:30:17;;;;;;;0.93;0.68;;;;;;;33.75;57.60;100527.47;4913575;28;70212;-36
2023/08/25 06:32:47;;;;;;;0.73;0.60;;;;;;;33.75;57.75;100521.22;4920552;28;66252;-36
2023/08/25 06:35:17;;;;;;;0.95;0.70;;;;;;;33.79;57.86;100522.34;4916728;28;69518;-36
2023/08/25 06:37:47;;;;;;;0.73;0.63;;;;;;;33.83;57.61;100522.69;4909607;28;66432;-36
2023/08/25 06:40:19;;;;;;;;;;;;;;;33.63;58.12;100512.31;4914971;28;70415;-37
2023/08/25 06:42:49;;;;;;;1.20;0.90;;;;;;;33.86;57.89;100511.31;4909496;28;66025;-36
2023/08/25 06:45:19;;;;;;;1.58;1.10;;;;;;;33.92;57.44;100513.03;4910170;28;70015;-36
2023/08/25 06:47:50;;;;;;;1.52;0.82;;;;;;;33.95;57.43;100516.06;4918321;28;66461;-36
2023/08/25 06:50:22;;;;;;;0.80;0.63;;;;;;;33.95;57.44;100501.63;4911871;28;69922;-37
2023/08/25 06:52:52;;;;;;;1.70;1.00;;;;;;;33.97;57.55;100494.06;4877006;28;65373;-35
2023/08/25 06:55:25;;;;;;;1.83;0.90;;;;;;;33.94;57.30;100489.13;4914636;28;69641;-35
2023/08/25 06:57:55;;;;;;;0.80;0.70;;;;;;;34.07;57.06;100512.44;4906758;28;66247;-37
2023/08/25 07:00:25;;;;;;;1.00;0.68;;;;;;;33.83;56.70;100462.84;4905083;28;70520;-37
2023/08/25 07:02:56;;;;;;;0.60;0.60;;;;;;;34.07;57.20;100491.50;4905423;28;66488;-36
2023/08/25 07:05:26;;;;;;;2.05;0.63;;;;;;;34.11;56.61;100492.66;4905375;28;70003;-35
2023/08/25 07:07:56;;;;;;;0.50;0.50;;;;;;;34.15;57.24;100485.59;4914681;28;65966;-37
2023/08/25 07:10:26;;;;;;;1.58;0.98;;;;;;;34.16;56.97;100489.19;4906750;28;70762;-36
2023/08/25 07:12:56;;;;;;;1.38;0.77;;;;;;;34.17;56.70;100478.03;4905742;28;66380;-37
2023/08/25 07:15:26;;;;;;;1.88;0.93;;;;;;;34.20;56.71;100480.25;4907305;28;70537;-35
2023/08/25 07:17:56;;;;;;;1.35;0.88;;;;;;;34.22;56.99;100480.81;4913506;28;65649;-35
2023/08/25 07:20:27;;;;;;;1.75;0.95;;;;;;;34.26;56.36;100479.22;4890013;28;69320;-36
2023/08/25 07:22:57;;;;;;;1.33;0.80;;;;;;;34.29;56.33;100477.06;4904447;28;66094;-35
2023/08/25 07:25:27;;;;;;;1.95;1.20;;;;;;;34.33;56.67;100480.94;4910521;28;69940;-37
2023/08/25 07:27:57;;;;;;;1.30;0.70;;;;;;;34.37;56.50;100474.72;4918598;28;66659;-35
2023/08/25 07:30:27;;;;;;;1.88;1.00;;;;;;;34.43;56.14;100472.88;4913002;28;69769;-37
2023/08/25 07:32:57;;;;;;;1.48;0.75;;;;;;;34.44;56.01;100475.38;4915216;28;66212;-36
2023/08/25 07:35:27;;;;;;;4.10;0.90;;;;;;;34.49;56.41;100466.41;4920983;28;70562;-34
2023/08/25 07:37:57;;;;;;;1.25;0.80;;;;;;;34.50;56.40;100461.81;4890224;28;66223;-35
2023/08/25 07:40:29;;;;;;;1.20;1.10;;;;;;;34.55;55.60;100450.97;4906155;28;70184;-36
2023/08/25 07:43:01;;;;;;;0.98;0.70;;;;;;;34.22;55.57;100396.44;4913952;28;64851;-45
2023/08/25 07:45:31;;;;;;;;;;;;;;;34.38;56.06;100445.59;4910676;28;70283;-35
2023/08/25 07:48:03;;;;;;;0.70;0.68;;;;;;;34.59;55.64;100444.78;4919498;28;66823;-36
2023/08/25 07:50:33;;;;;;;2.10;0.95;;;;;;;34.58;55.82;100429.53;4919699;28;68079;-37
2023/08/25 07:53:03;;;;;;;1.25;0.82;;;;;;;34.67;55.93;100433.44;4916449;28;65809;-36
2023/08/25 07:55:36;;;;;;;0.93;0.70;;;;;;;34.66;55.55;100420.91;4914378;28;69674;-35
2023/08/25 07:58:10;;;;;;;0.77;0.70;;;;;;;34.76;55.38;100432.97;4906705;28;66313;-35
2023/08/25 08:00:40;;;;;;;0.80;0.70;;;;;;;34.74;55.87;100421.50;4905734;28;69800;-35
2023/08/25 08:03:14;;;;;;;1.25;0.60;;;;;;;34.83;55.37;100425.41;4898972;28;65522;-35
2023/08/25 08:05:45;;;;;;;0.75;0.60;;;;;;;34.77;55.23;100391.84;4898079;28;69123;-35
2023/08/25 08:08:15;;;;;;;1.08;0.63;;;;;;;34.91;55.59;100417.59;4920891;28;65744;-36
2023/08/25 08:10:45;;;;;;;3.50;0.50;;;;;;;34.95;55.40;100409.72;4910095;28;69983;-36
2023/08/25 08:13:15;;;;;;;0.73;0.50;;;;;;;34.97;54.80;100413.00;4921000;28;66029;-35
2023/08/25 08:15:45;;;;;;;1.85;0.77;;;;;;;35.03;54.52;100411.16;4916585;28;69709;-36
2023/08/25 08:18:15;;;;;;;0.60;0.50;;;;;;;35.04;54.47;100405.41;4905117;28;65752;-36
2023/08/25 08:20:45;;;;;;;0.80;0.40;;;;;;;35.09;54.51;100397.31;4902582;28;70542;-35
2023/08/25 08:23:15;;;;;;;0.50;0.40;;;;;;;35.07;54.47;100380.38;4910168;28;66232;-36
2023/08/25 08:25:45;;;;;;;1.65;0.57;;;;;;;35.10;54.39;100390.81;4914722;28;71460;-36
2023/08/25 08:28:15;;;;;;;2.25;0.45;;;;;;;35.13;54.77;100394.88;4910092;28;66285;-35
2023/08/25 08:30:45;;;;;;;0.65;0.47;;;;;;;35.13;54.70;100401.19;4910396;28;69880;-37
2023/08/25 08:33:18;;;;;;;0.50;0.40;;;;;;;35.14;54.81;100394.63;4906808;28;66278;-36
2023/08/25 08:35:48;;;;;;;3.10;0.57;;;;;;;35.16;54.75;100393.53;4914916;28;68606;-36
2023/08/25 08:38:18;;;;;;;1.00;0.60;;;;;;;35.19;54.72;100393.00;4914992;28;65848;-35
2023/08/25 08:40:49;;;;;;;1.10;0.40;;;;;;;35.20;54.34;100394.69;4918063;28;70493;-35
2023/08/25 08:43:20;;;;;;;0.60;0.43;;;;;;;35.14;54.13;100386.47;4911577;28;65511;-35
2023/08/25 08:45:52;;;;;;;0.95;0.52;;;;;;;35.25;54.16;100394.72;4916446;28;70347;-35
2023/08/25 08:48:23;;;;;;;1.95;0.50;;;;;;;35.28;54.52;100397.72;4912137;28;65075;-36
2023/08/25 08:50:53;;;;;;;0.95;0.40;;;;;;;35.26;54.23;100386.25;4917442;28;70450;-40
2023/08/25 08:53:24;;;;;;;0.38;0.30;;;;;;;35.32;54.03;100398.03;4923335;28;66335;-36
2023/08/25 08:55:56;;;;;;;1.70;0.38;;;;;;;35.34;53.89;100395.88;4919374;28;70193;-37
2023/08/25 08:58:26;;;;;;;1.20;0.32;;;;;;;35.34;54.47;100388.50;4909725;28;65802;-35
2023/08/25 09:00:56;;;;;;;0.80;0.40;;;;;;;35.33;53.56;100381.41;4910439;28;69950;-37
2023/08/25 09:03:33;;;;;;;0.88;0.40;;;;;;;35.21;53.34;100358.13;4908423;28;65853;-36
2023/08/25 09:06:03;;;;;;;0.80;0.30;;;;;;;35.31;53.74;100369.13;4893850;28;69812;-35
2023/08/25 09:08:36;;;;;;;0.52;0.30;;;;;;;35.33;53.96;100372.41;4912686;28;65974;-37
2023/08/25 09:11:06;;;;;;;0.80;0.45;;;;;;;35.33;54.02;100364.25;4908437;28;69969;-35
2023/08/25 09:13:36;;;;;;;0.77;0.50;;;;;;;35.33;54.08;100370.50;4911598;28;65832;-36
2023/08/25 09:16:15;;;;;;;0.70;0.57;;;;;;;35.35;54.05;100367.50;4909168;28;69861;-34
2023/08/25 09:18:46;;;;;;;0.80;0.40;;;;;;;35.37;53.74;100373.53;4909223;28;65802;-35
2023/08/25 09:21:19;;;;;;;0.43;0.30;;;;;;;35.38;53.87;100377.06;4920727;28;69714;-35
2023/08/25 09:24:00;;;;;;;1.77;0.60;;;;;;;35.09;53.43;100323.72;4924694;28;66216;-35
2023/08/25 09:26:38;;;;;;;1.50;0.50;;;;;;;35.41;53.72;100376.53;4895419;28;69934;-35
2023/08/25 09:29:10;;;;;;;0.45;0.30;;;;;;;35.42;54.11;100376.28;4909374;28;66199;-35
2023/08/25 09:31:41;;;;;;;0.57;0.40;;;;;;;35.43;53.46;100377.91;4922008;28;70333;-35
2023/08/25 09:34:13;;;;;;;0.40;0.30;;;;;;;35.42;53.33;100381.75;4923129;28;65957;-35
2023/08/25 09:36:55;;;;;;;3.03;0.32;;;;;;;35.00;53.27;100306.19;4909354;28;70239;-35
2023/08/25 09:39:25;;;;;;;0.52;0.30;;;;;;;35.44;53.54;100368.66;4918711;28;66427;-36
2023/08/25 09:41:55;;;;;;;0.45;0.25;;;;;;;35.47;53.60;100372.78;4923737;28;69828;-35
2023/08/25 09:44:25;;;;;;;0.75;0.50;;;;;;;35.48;53.52;100364.31;4924772;28;67120;-34
2023/08/25 09:46:57;;;;;;;0.40;0.22;;;;;;;35.48;53.39;100375.22;4908115;28;70392;-34
2023/08/25 09:49:40;;;;;;;1.42;0.30;;;;;;;35.04;54.01;100331.81;4923064;28;65782;-36
2023/08/25 09:52:16;;;;;;;0.45;0.30;;;;;;;35.40;53.74;100378.44;4908829;28;70263;-35
2023/08/25 09:54:46;;;;;;;1.10;0.40;;;;;;;35.46;53.99;100404.66;4911474;28;66582;-36
2023/08/25 09:57:17;;;;;;;0.73;0.40;;;;;;;35.45;53.48;100415.84;4910056;28;70290;-35
2023/08/25 09:59:47;;;;;;;1.70;0.43;;;;;;;35.44;54.17;100412.31;4910476;28;66736;-35
2023/08/25 10:02:18;;;;;;;0.50;0.40;;;;;;;35.45;54.06;100426.75;4919045;28;70006;-35
2023/08/25 10:04:48;;;;;;;0.80;0.30;;;;;;;35.45;54.29;100445.84;4938587;28;66884;-35
2023/08/25 10:07:20;;;;;;;2.17;0.60;;;;;;;35.42;54.20;100452.66;4923328;28;70290;-35
2023/08/25 10:09:51;;;;;;;4.97;0.90;;;;;;;35.39;54.02;100455.91;4911961;28;66019;-36
2023/08/25 10:12:23;;;;;;;1.00;0.63;;;;;;;35.37;53.74;100466.25;4911713;28;70552;-37
2023/08/25 10:14:56;;;;;;;0.65;0.60;;;;;;;35.06;54.22;100427.00;4918727;28;66735;-35
2023/08/25 10:17:28;;;;;;;1.20;1.10;;;;;;;35.30;54.41;100484.72;4911189;28;69237;-35
2023/08/25 10:20:04;;;;;;;1.23;0.90;;;;;;;35.36;54.42;100486.44;4910020;28;66760;-36
2023/08/25 10:22:35;;;;;;;1.42;1.33;;;;;;;35.32;54.58;100496.19;4912800;28;70257;-34
2023/08/25 10:25:10;;;;;;;1.95;1.33;;;;;;;34.87;54.31;100430.06;4913839;28;65665;-35
2023/08/25 10:27:41;;;;;;;1.30;1.10;;;;;;;35.27;54.66;100502.44;4907956;28;70080;-35
2023/08/25 10:30:12;;;;;;;1.95;1.30;;;;;;;35.25;54.53;100496.41;4913409;28;66753;-36
2023/08/25 10:33:04;;;;;;;1.70;1.45;;;;;;;35.18;55.12;100492.25;4911424;28;69363;-35
2023/08/25 10:35:44;;;;;;;3.17;1.48;;;;;;;35.21;55.14;100499.91;4912650;28;66420;-35
2023/08/25 10:38:22;;;;;;;1.80;1.70;;;;;;;35.21;54.79;100502.63;4908559;28;69822;-36
2023/08/25 10:40:53;;;;;;;2.08;1.90;;;;;;;35.18;55.35;100505.88;4915039;28;66403;-36
2023/08/25 10:43:33;;;;;;;2.40;2.22;;;;;;;35.14;55.34;100517.31;4920076;28;70102;-35
2023/08/25 10:46:07;;;;;;;2.22;2.10;;;;;;;35.18;55.19;100511.34;4910800;28;66246;-36
2023/08/25 10:48:38;;;;;;;5.85;2.08;;;;;;;35.19;55.31;100523.88;4920414;28;69915;-35
2023/08/25 10:51:20;;;;;;;2.92;2.72;;;;;;;35.13;55.15;100528.47;4919162;28;65360;-37
2023/08/25 10:53:52;;;;;;;2.40;2.00;;;;;;;35.03;55.33;100512.81;4911899;28;71151;-36
2023/08/25 10:56:25;;;;;;;2.45;2.20;;;;;;;35.11;55.46;100526.00;4919016;28;65775;-36
2023/08/25 10:59:09;;;;;;;1.70;1.60;;;;;;;34.72;54.78;100464.53;4915311;28;70143;-35
2023/08/25 11:01:39;;;;;;;3.60;1.88;;;;;;;35.11;54.89;100523.28;4913154;28;66702;-35
2023/08/25 11:04:21;;;;;;;1.65;1.55;;;;;;;34.66;55.66;100445.41;4915819;28;70328;-36
2023/08/25 11:06:54;;;;;;;1.58;1.30;;;;;;;35.04;55.27;100514.44;4889798;28;66032;-35
2023/08/25 11:09:24;;;;;;;1.17;1.08;;;;;;;35.03;55.44;100515.53;4912422;28;69799;-35
2023/08/25 11:11:59;;;;;;;1.02;0.93;;;;;;;35.01;56.08;100523.13;4918232;28;65545;-34
2023/08/25 11:14:38;;;;;;;1.70;1.15;;;;;;;34.98;55.72;100529.09;4914807;28;70741;-35
2023/08/25 11:17:10;;;;;;;1.52;1.27;;;;;;;34.99;55.98;100538.91;4908584;28;65794;-36
2023/08/25 11:19:42;;;;;;;1.40;1.17;;;;;;;34.98;55.63;100561.00;4920196;28;70441;-35
2023/08/25 11:22:12;;;;;;;1.27;1.17;;;;;;;34.96;55.74;100565.88;4895257;28;66362;-34
2023/08/25 11:24:44;;;;;;;2.03;1.42;;;;;;;34.98;55.65;100567.25;4907530;28;69669;-36
2023/08/25 11:27:16;;;;;;;1.08;0.93;;;;;;;34.95;56.25;100567.78;4919247;28;65258;-35
2023/08/25 11:29:49;;;;;;;1.40;1.08;;;;;;;34.96;56.07;100568.59;4917352;28;70670;-36
2023/08/25 11:32:19;;;;;;;1.58;1.00;;;;;;;34.85;55.67;100556.75;4916903;28;66709;-35
2023/08/25 11:34:49;;;;;;;2.40;1.00;;;;;;;34.95;56.21;100573.22;4925339;28;70004;-40
2023/08/25 11:37:21;;;;;;;1.17;1.00;;;;;;;34.92;55.74;100569.13;4921829;28;66513;-35
2023/08/25 11:39:51;;;;;;;1.30;1.02;;;;;;;34.92;55.65;100557.41;4922836;28;69864;-36
2023/08/25 11:42:21;;;;;;;1.38;1.27;;;;;;;34.91;56.08;100559.31;4911539;28;66516;-35
2023/08/25 11:44:52;;;;;;;1.98;1.08;;;;;;;34.88;56.54;100564.41;4929673;28;70371;-34
2023/08/25 11:47:23;;;;;;;1.55;1.10;;;;;;;34.81;56.52;100555.63;4864455;28;64906;-36